Time;durP1;ratioP1;P1;durP2;ratioP2;P2;SDS_P1;SDS_P2;PMS_P1;PMS_P2;Temp;Humidity;BMP_temperature;BMP_pressure;BME280_temperature;BME280_humidity;BME280_pressure;Samples;Min_cycle;Max_cycle;Signal;HPM_P1;HPM_P2
2023/05/28 00:01:04;;;;;;;1999.90;999.90;;;12.30;99.90;;;;;;5012292;28;20566;-83
2023/05/28 00:03:35;;;;;;;1999.90;999.90;;;12.30;99.90;;;;;;5031149;28;20095;-83
2023/05/28 00:06:01;;;;;;;1999.90;999.90;;;12.30;99.90;;;;;;5031552;28;20133;-82
2023/05/28 00:08:27;;;;;;;1999.90;999.90;;;12.20;99.90;;;;;;5013134;28;20057;-84
2023/05/28 00:10:59;;;;;;;1999.90;999.90;;;12.20;99.90;;;;;;5010182;28;20049;-82
2023/05/28 00:13:29;;;;;;;1999.90;999.90;;;12.20;99.90;;;;;;5031399;28;20045;-83
2023/05/28 00:15:55;;;;;;;917.22;79.95;;;12.20;99.90;;;;;;5031900;28;20045;-83
2023/05/28 00:18:21;;;;;;;1669.43;767.42;;;12.20;99.90;;;;;;5013670;28;20079;-83
2023/05/28 00:20:48;;;;;;;1999.90;999.90;;;12.10;99.90;;;;;;5012410;28;20132;-83
2023/05/28 00:23:14;;;;;;;1999.90;999.90;;;12.10;99.90;;;;;;5013335;28;20053;-83
2023/05/28 00:25:40;;;;;;;1657.65;765.63;;;12.20;99.90;;;;;;5012133;28;20061;-83
2023/05/28 00:28:06;;;;;;;1659.90;764.38;;;12.10;99.90;;;;;;5012661;28;20110;-83
2023/05/28 00:30:31;;;;;;;1999.90;999.90;;;12.20;99.90;;;;;;5011203;28;20052;-84
2023/05/28 00:32:57;;;;;;;1999.90;999.90;;;12.10;99.90;;;;;;5011373;28;20539;-83
2023/05/28 00:35:23;;;;;;;1999.90;999.90;;;12.10;99.90;;;;;;5016228;28;20060;-83
2023/05/28 00:37:48;;;;;;;1999.90;999.90;;;12.10;99.90;;;;;;5001433;28;20164;-83
2023/05/28 00:40:17;;;;;;;1999.90;999.90;;;12.10;99.90;;;;;;5012839;28;20045;-83
2023/05/28 00:42:46;;;;;;;1999.90;999.90;;;12.00;99.90;;;;;;5015386;28;20057;-83
2023/05/28 00:45:12;;;;;;;1999.90;999.90;;;12.00;99.90;;;;;;5033819;28;20080;-82
2023/05/28 00:47:39;;;;;;;1999.90;999.90;;;12.00;99.90;;;;;;5032112;28;20544;-83
2023/05/28 00:50:09;;;;;;;1999.90;999.90;;;12.00;99.90;;;;;;5017266;28;20079;-83
2023/05/28 00:52:36;;;;;;;1999.90;999.90;;;12.00;99.90;;;;;;5019550;28;20045;-82
2023/05/28 00:55:08;;;;;;;1999.90;999.90;;;12.00;99.90;;;;;;5034666;28;20049;-82
2023/05/28 00:57:36;;;;;;;1665.68;765.78;;;12.10;99.90;;;;;;5013920;28;20041;-83
2023/05/28 01:00:05;;;;;;;1999.90;999.90;;;12.10;99.90;;;;;;5000630;28;20049;-82
2023/05/28 01:02:31;;;;;;;1630.70;763.28;;;12.10;99.90;;;;;;5032029;28;20054;-82
2023/05/28 01:04:57;;;;;;;1999.90;999.90;;;12.10;99.90;;;;;;5016977;28;20049;-82
2023/05/28 01:07:23;;;;;;;1999.90;999.90;;;12.10;99.90;;;;;;5032636;28;20044;-84
2023/05/28 01:09:48;;;;;;;1999.90;999.90;;;12.10;99.90;;;;;;5034304;28;20104;-83
2023/05/28 01:12:14;;;;;;;1999.90;999.90;;;12.20;99.90;;;;;;5032434;28;20041;-82
2023/05/28 01:14:40;;;;;;;1731.90;772.15;;;12.20;99.90;;;;;;5030881;28;20050;-82
2023/05/28 01:17:06;;;;;;;1541.95;574.72;;;12.20;99.90;;;;;;5032515;28;20049;-81
2023/05/28 01:19:33;;;;;;;1999.90;999.90;;;12.20;99.90;;;;;;5033627;28;20052;-81
2023/05/28 01:22:04;;;;;;;1999.90;999.90;;;12.20;99.90;;;;;;4983471;28;20046;-81
2023/05/28 01:24:34;;;;;;;1999.90;999.90;;;12.20;99.90;;;;;;5032605;28;20045;-82
2023/05/28 01:27:01;;;;;;;1999.90;999.90;;;12.20;99.90;;;;;;5015839;28;20046;-82
2023/05/28 01:29:27;;;;;;;1376.63;534.95;;;12.10;99.90;;;;;;5015989;28;20057;-82
2023/05/28 01:31:52;;;;;;;1999.90;999.90;;;12.10;99.90;;;;;;5031161;28;20101;-82
2023/05/28 01:34:18;;;;;;;1999.90;999.90;;;12.20;99.90;;;;;;5015596;28;20061;-82
2023/05/28 01:36:56;;;;;;;1999.90;999.90;;;12.20;99.90;;;;;;4999454;28;20049;-83
2023/05/28 01:39:25;;;;;;;1999.90;999.90;;;12.20;99.90;;;;;;4998343;28;20120;-83
2023/05/28 01:41:51;;;;;;;1999.90;999.90;;;12.10;99.90;;;;;;5031122;28;20315;-84
2023/05/28 01:44:21;;;;;;;1999.90;999.90;;;12.10;99.90;;;;;;5014844;28;20042;-83
2023/05/28 01:46:47;;;;;;;1526.72;547.40;;;12.10;99.90;;;;;;4995972;28;20495;-83
2023/05/28 01:49:13;;;;;;;1999.90;999.90;;;12.10;99.90;;;;;;5011450;28;20104;-84
2023/05/28 01:51:39;;;;;;;1657.70;165.35;;;12.10;99.90;;;;;;5009800;28;20052;-84
2023/05/28 01:54:05;;;;;;;1999.90;999.90;;;12.10;99.90;;;;;;5000311;28;20073;-84
2023/05/28 01:56:30;;;;;;;1999.90;999.90;;;12.10;99.90;;;;;;4995771;28;20049;-82
2023/05/28 01:58:56;;;;;;;1666.53;765.17;;;12.10;99.90;;;;;;5013539;28;20046;-82
2023/05/28 02:01:30;;;;;;;1999.90;999.90;;;12.10;99.90;;;;;;5009725;28;20046;-83
2023/05/28 02:03:56;;;;;;;1999.90;999.90;;;12.10;99.90;;;;;;5009855;28;20061;-83
2023/05/28 02:06:22;;;;;;;1999.90;999.90;;;12.10;99.90;;;;;;5011167;28;20129;-83
2023/05/28 02:08:48;;;;;;;1999.90;999.90;;;12.10;99.90;;;;;;5010352;28;20054;-84
2023/05/28 02:11:14;;;;;;;1999.90;999.90;;;12.10;99.90;;;;;;5012574;28;20060;-84
2023/05/28 02:13:40;;;;;;;1999.90;999.90;;;12.10;99.90;;;;;;5011183;28;20042;-84
2023/05/28 02:16:10;;;;;;;1434.63;541.67;;;12.30;99.90;;;;;;5010624;28;20136;-84
2023/05/28 02:18:36;;;;;;;1999.90;999.90;;;12.10;99.90;;;;;;5012200;28;20049;-84
2023/05/28 02:21:03;;;;;;;1999.90;999.90;;;12.10;99.90;;;;;;5010681;28;20080;-84
2023/05/28 02:23:29;;;;;;;1999.90;999.90;;;12.10;99.90;;;;;;5012418;28;20112;-85
2023/05/28 02:25:55;;;;;;;1663.68;765.85;;;12.10;99.90;;;;;;5009294;28;20120;-84
2023/05/28 02:28:20;;;;;;;1999.90;999.90;;;12.10;99.90;;;;;;5013231;28;20046;-83
2023/05/28 02:30:46;;;;;;;1999.90;999.90;;;12.00;99.90;;;;;;4995200;28;20053;-82
2023/05/28 02:33:12;;;;;;;1936.35;793.03;;;12.00;99.90;;;;;;5012278;28;20070;-81
2023/05/28 02:35:37;;;;;;;1999.90;999.90;;;12.00;99.90;;;;;;5010521;28;20091;-81
2023/05/28 02:38:03;;;;;;;1399.03;540.72;;;12.00;99.90;;;;;;5011966;28;20049;-81
2023/05/28 02:40:29;;;;;;;1999.90;999.90;;;12.00;99.90;;;;;;5011106;28;20064;-82
2023/05/28 02:42:54;;;;;;;1698.20;768.95;;;12.00;99.90;;;;;;5011599;28;20053;-83
2023/05/28 02:45:20;;;;;;;1999.90;999.90;;;12.00;99.90;;;;;;5019219;28;20136;-82
2023/05/28 02:47:46;;;;;;;1999.90;999.90;;;12.00;99.90;;;;;;5031161;28;20054;-81
2023/05/28 02:50:12;;;;;;;1237.15;149.57;;;12.00;99.90;;;;;;5030773;28;20091;-82
2023/05/28 02:52:37;;;;;;;1999.90;999.90;;;12.00;99.90;;;;;;5029833;28;20402;-82
2023/05/28 02:55:03;;;;;;;1999.90;999.90;;;12.00;99.90;;;;;;5028543;28;20509;-83
2023/05/28 02:57:29;;;;;;;1999.90;999.90;;;12.00;99.90;;;;;;5012611;28;20048;-82
2023/05/28 02:59:54;;;;;;;1683.03;770.45;;;12.00;99.90;;;;;;5031925;28;20045;-82
2023/05/28 03:02:20;;;;;;;1999.90;999.90;;;12.00;99.90;;;;;;5013341;28;20056;-82
2023/05/28 03:04:46;;;;;;;1999.90;999.90;;;12.00;99.90;;;;;;5012980;28;20038;-83
2023/05/28 03:07:11;;;;;;;1999.90;999.90;;;12.00;99.90;;;;;;5032759;28;20375;-83
2023/05/28 03:09:37;;;;;;;1999.90;999.90;;;12.00;99.90;;;;;;5012586;28;20041;-82
2023/05/28 03:12:03;;;;;;;1999.90;999.90;;;12.00;99.90;;;;;;5029827;28;20053;-82
2023/05/28 03:14:29;;;;;;;1999.90;999.90;;;11.90;99.90;;;;;;5029149;28;20041;-80
2023/05/28 03:16:54;;;;;;;1549.85;541.97;;;11.90;99.90;;;;;;4995447;28;20893;-82
2023/05/28 03:19:20;;;;;;;1790.60;781.97;;;11.90;99.90;;;;;;5014998;28;20516;-81
2023/05/28 03:21:46;;;;;;;1730.22;771.22;;;11.90;99.90;;;;;;5015801;28;20083;-81
2023/05/28 03:24:12;;;;;;;1999.90;999.90;;;11.80;99.90;;;;;;5012869;28;20486;-83
2023/05/28 03:26:38;;;;;;;1786.35;781.03;;;11.80;99.90;;;;;;4996090;28;20133;-84
2023/05/28 03:29:04;;;;;;;1865.43;797.30;;;11.70;99.90;;;;;;5031075;28;20046;-84
2023/05/28 03:31:30;;;;;;;1831.28;578.40;;;11.70;99.90;;;;;;5012732;28;20482;-82
2023/05/28 03:33:56;;;;;;;1999.90;999.90;;;11.70;99.90;;;;;;5015392;28;20050;-83
2023/05/28 03:36:24;;;;;;;1391.85;537.72;;;11.70;99.90;;;;;;5029543;28;20045;-82
2023/05/28 03:38:50;;;;;;;1767.50;573.83;;;11.70;99.90;;;;;;5012816;28;20552;-83
2023/05/28 03:41:15;;;;;;;1761.57;782.55;;;11.70;99.90;;;;;;5013997;28;20085;-82
2023/05/28 03:43:41;;;;;;;1745.35;772.33;;;11.70;99.90;;;;;;5012890;28;20045;-83
2023/05/28 03:46:07;;;;;;;1231.22;144.25;;;11.70;99.90;;;;;;5011960;28;20057;-82
2023/05/28 03:48:33;;;;;;;1662.68;766.30;;;11.70;99.90;;;;;;5021835;28;20459;-82
2023/05/28 03:50:58;;;;;;;1999.90;999.90;;;11.70;99.90;;;;;;5030522;28;20164;-82
2023/05/28 03:53:24;;;;;;;1616.05;352.25;;;11.70;99.90;;;;;;5031536;28;20034;-81
2023/05/28 03:55:51;;;;;;;1999.90;999.90;;;11.70;99.90;;;;;;5011452;28;20060;-82
2023/05/28 03:58:17;;;;;;;1710.43;775.97;;;11.60;99.90;;;;;;5028012;28;20050;-81
2023/05/28 04:00:43;;;;;;;1552.00;562.47;;;11.60;99.90;;;;;;5030758;28;20058;-82
2023/05/28 04:03:08;;;;;;;1999.90;999.90;;;11.60;99.90;;;;;;5031833;28;20045;-81
2023/05/28 04:05:34;;;;;;;1999.90;999.90;;;11.60;99.90;;;;;;5031658;28;20042;-81
2023/05/28 04:08:01;;;;;;;1999.90;999.90;;;11.50;99.90;;;;;;5028414;28;20081;-81
2023/05/28 04:10:26;;;;;;;790.28;77.68;;;11.50;99.90;;;;;;5033895;28;20506;-81
2023/05/28 04:12:54;;;;;;;1719.10;770.67;;;11.40;99.90;;;;;;5001193;28;20045;-80
2023/05/28 04:15:20;;;;;;;1999.90;999.90;;;11.40;99.90;;;;;;5015774;28;20056;-80
2023/05/28 04:17:46;;;;;;;1999.90;999.90;;;11.40;99.90;;;;;;5016898;28;20049;-81
2023/05/28 04:20:12;;;;;;;1999.90;999.90;;;11.40;99.90;;;;;;5017867;28;20056;-83
2023/05/28 04:22:37;;;;;;;1137.55;124.95;;;11.30;99.90;;;;;;5017673;28;20049;-81
2023/05/28 04:25:04;;;;;;;1367.50;534.10;;;11.40;99.90;;;;;;5015569;28;20122;-81
2023/05/28 04:27:30;;;;;;;1011.90;99.55;;;11.30;99.90;;;;;;5032309;28;20064;-80
2023/05/28 04:29:56;;;;;;;1999.90;999.90;;;11.30;99.90;;;;;;5017142;28;20478;-81
2023/05/28 04:32:23;;;;;;;1999.90;999.90;;;11.40;99.90;;;;;;5014477;28;20104;-83
2023/05/28 04:34:51;;;;;;;1353.15;356.38;;;11.30;99.90;;;;;;5000818;28;20084;-81
2023/05/28 04:37:17;;;;;;;;;;;11.30;99.90;;;;;;5035102;28;20410;-81
2023/05/28 04:39:43;;;;;;;1999.90;999.90;;;11.30;99.90;;;;;;5013931;28;19983;-81
2023/05/28 04:42:13;;;;;;;1999.90;999.90;;;11.30;99.90;;;;;;5011007;28;20554;-82
2023/05/28 04:44:40;;;;;;;1369.13;529.58;;;11.30;99.90;;;;;;5016583;28;20476;-81
2023/05/28 04:47:08;;;;;;;1999.90;999.90;;;11.30;99.90;;;;;;5034264;28;20053;-81
2023/05/28 04:49:34;;;;;;;1999.90;999.90;;;11.40;99.90;;;;;;5014516;28;20363;-82
2023/05/28 04:51:59;;;;;;;1999.90;999.90;;;11.40;99.90;;;;;;5031150;28;20049;-82
2023/05/28 04:54:26;;;;;;;1999.90;999.90;;;11.40;1.00;;;;;;5003818;28;20466;-82
2023/05/28 04:56:52;;;;;;;1486.53;549.75;;;11.40;1.00;;;;;;5015992;28;20048;-83
2023/05/28 04:59:18;;;;;;;1699.65;769.78;;;11.50;1.00;;;;;;5009577;28;20136;-82
2023/05/28 05:01:44;;;;;;;1999.90;999.90;;;11.50;1.00;;;;;;5032869;28;20085;-82
2023/05/28 05:04:10;;;;;;;1999.90;999.90;;;11.50;1.00;;;;;;5015049;28;20057;-82
2023/05/28 05:06:35;;;;;;;1281.50;536.50;;;11.60;1.00;;;;;;5033063;28;20053;-82
2023/05/28 05:09:02;;;;;;;1999.90;999.90;;;11.70;1.00;;;;;;5015128;28;20124;-82
2023/05/28 05:11:27;;;;;;;1416.60;540.38;;;11.70;1.00;;;;;;5015811;28;20553;-83
2023/05/28 05:13:53;;;;;;;1999.90;999.90;;;11.80;1.00;;;;;;5016162;28;20045;-82
2023/05/28 05:16:20;;;;;;;1999.90;999.90;;;11.90;1.00;;;;;;5000232;28;20045;-82
2023/05/28 05:18:46;;;;;;;1999.90;999.90;;;12.00;1.00;;;;;;5015408;28;20054;-83
2023/05/28 05:21:12;;;;;;;1999.90;999.90;;;12.00;1.00;;;;;;5013234;28;20056;-82
2023/05/28 05:23:39;;;;;;;1999.90;999.90;;;12.10;1.00;;;;;;5033751;28;20502;-82
2023/05/28 05:26:16;;;;;;;1999.90;999.90;;;12.20;1.00;;;;;;4997645;28;20046;-82
2023/05/28 05:28:43;;;;;;;1999.90;999.90;;;12.30;1.00;;;;;;5015885;28;20132;-82
2023/05/28 05:31:11;;;;;;;1237.80;304.33;;;12.40;1.00;;;;;;4981928;28;20049;-81
2023/05/28 05:33:37;;;;;;;1999.90;999.90;;;12.50;1.00;;;;;;4999899;28;20046;-81
2023/05/28 05:36:03;;;;;;;1999.90;999.90;;;12.60;1.00;;;;;;4995612;28;20041;-81
2023/05/28 05:38:30;;;;;;;1999.90;999.90;;;12.70;1.00;;;;;;5033500;28;20136;-81
2023/05/28 05:40:56;;;;;;;1999.90;999.90;;;12.80;1.00;;;;;;5013443;28;20552;-82
2023/05/28 05:43:22;;;;;;;1999.90;999.90;;;12.80;1.00;;;;;;5015260;28;20049;-82
2023/05/28 05:45:48;;;;;;;1999.90;999.90;;;12.80;1.00;;;;;;4997211;28;20138;-81
2023/05/28 05:48:13;;;;;;;1999.90;999.90;;;12.90;1.00;;;;;;4998881;28;20088;-82
2023/05/28 05:50:57;;;;;;;1999.90;999.90;;;13.00;1.00;;;;;;4998004;28;20056;-82
2023/05/28 05:53:24;;;;;;;1999.90;999.90;;;13.00;1.00;;;;;;5016391;28;20049;-81
2023/05/28 05:55:50;;;;;;;1999.90;999.90;;;13.00;1.00;;;;;;5012761;28;20129;-82
2023/05/28 05:58:16;;;;;;;1999.90;999.90;;;13.00;1.00;;;;;;4983294;28;20044;-82
2023/05/28 06:00:42;;;;;;;1999.90;999.90;;;13.00;1.00;;;;;;5017528;28;20041;-82
2023/05/28 06:03:08;;;;;;;1999.90;999.90;;;13.00;1.00;;;;;;4998436;28;20392;-81
2023/05/28 06:05:34;;;;;;;1999.90;999.90;;;13.10;1.00;;;;;;4997758;28;20053;-81
2023/05/28 06:08:02;;;;;;;1999.90;999.90;;;13.10;1.00;;;;;;5010956;28;20041;-83
2023/05/28 06:10:29;;;;;;;1999.90;999.90;;;13.20;1.00;;;;;;5013076;28;20049;-82
2023/05/28 06:12:55;;;;;;;1999.90;999.90;;;13.20;1.00;;;;;;5015173;28;20032;-83
2023/05/28 06:15:21;;;;;;;1999.90;999.90;;;13.20;1.00;;;;;;5012560;28;20041;-84
2023/05/28 06:17:47;;;;;;;1999.90;999.90;;;13.20;1.00;;;;;;5014355;28;20168;-82
2023/05/28 06:20:13;;;;;;;1999.90;999.90;;;13.30;1.00;;;;;;5006968;28;20057;-84
2023/05/28 06:22:40;;;;;;;1999.90;999.90;;;13.40;1.00;;;;;;5014092;28;20057;-84
2023/05/28 06:25:07;;;;;;;1999.90;999.90;;;13.40;1.00;;;;;;5009767;28;20041;-83
2023/05/28 06:27:35;;;;;;;1999.90;999.90;;;13.50;1.00;;;;;;5010203;28;20059;-83
2023/05/28 06:30:03;;;;;;;1999.90;999.90;;;13.50;99.90;;;;;;5014232;28;20460;-84
2023/05/28 06:32:29;;;;;;;1999.90;999.90;;;13.60;99.90;;;;;;5011810;28;20509;-83
2023/05/28 06:34:55;;;;;;;1999.90;999.90;;;13.60;99.90;;;;;;4999043;28;20056;-83
2023/05/28 06:37:21;;;;;;;1999.90;999.90;;;13.70;99.90;;;;;;5006019;28;20049;-84
2023/05/28 06:39:47;;;;;;;1999.90;999.90;;;13.80;99.90;;;;;;5010784;28;20060;-83
2023/05/28 06:42:12;;;;;;;1999.90;999.90;;;13.80;99.90;;;;;;5030101;28;20050;-83
2023/05/28 06:44:38;;;;;;;1999.90;999.90;;;13.90;99.90;;;;;;4998378;28;20049;-82
2023/05/28 06:47:04;;;;;;;1999.90;999.90;;;14.00;99.90;;;;;;5010860;28;20053;-84
2023/05/28 06:49:30;;;;;;;1999.90;999.90;;;14.10;99.90;;;;;;5011073;28;20045;-83
2023/05/28 06:51:55;;;;;;;1999.90;999.90;;;14.10;99.90;;;;;;4998658;28;20135;-83
2023/05/28 06:54:21;;;;;;;1999.90;999.90;;;14.20;99.90;;;;;;5012667;28;20052;-83
2023/05/28 06:56:47;;;;;;;1999.90;999.90;;;14.30;99.90;;;;;;4995934;28;20077;-83
2023/05/28 06:59:12;;;;;;;1999.90;999.90;;;14.40;99.90;;;;;;5023432;28;20475;-83
2023/05/28 07:01:38;;;;;;;1999.90;999.90;;;14.40;99.90;;;;;;5014321;28;20115;-84
2023/05/28 07:04:04;;;;;;;1999.90;999.90;;;14.50;99.90;;;;;;5012461;28;20045;-83
2023/05/28 07:06:30;;;;;;;1999.90;999.90;;;14.60;99.90;;;;;;5008805;28;20048;-85
2023/05/28 07:08:56;;;;;;;1999.90;999.90;;;14.80;99.90;;;;;;4979679;28;20045;-83
2023/05/28 07:11:21;;;;;;;1999.90;999.90;;;15.00;99.90;;;;;;5000920;28;20135;-83
2023/05/28 07:13:47;;;;;;;1999.90;999.90;;;15.30;99.90;;;;;;4998066;28;20122;-82
2023/05/28 07:16:13;;;;;;;1999.90;999.90;;;15.50;99.90;;;;;;5029792;28;20132;-84
2023/05/28 07:18:40;;;;;;;1999.90;999.90;;;15.70;99.90;;;;;;4993683;28;20064;-84
2023/05/28 07:21:05;;;;;;;1999.90;999.90;;;16.00;99.90;;;;;;5030094;28;20041;-83
2023/05/28 07:23:31;;;;;;;1999.90;853.55;;;16.10;99.90;;;;;;4981987;28;20490;-83
2023/05/28 07:25:57;;;;;;;1999.90;767.72;;;16.30;99.90;;;;;;5013536;28;20053;-83
2023/05/28 07:28:23;;;;;;;1999.90;999.90;;;16.40;99.90;;;;;;5008275;28;20042;-84
2023/05/28 07:30:48;;;;;;;1999.90;999.90;;;16.60;99.90;;;;;;4992711;28;20151;-84
2023/05/28 07:33:15;;;;;;;1999.90;999.90;;;16.80;99.90;;;;;;5004664;28;20088;-84
2023/05/28 07:35:41;;;;;;;1999.90;999.90;;;16.90;99.90;;;;;;5009895;28;20087;-84
2023/05/28 07:38:10;;;;;;;1999.90;701.67;;;17.10;99.90;;;;;;4991312;28;20105;-84
2023/05/28 07:40:36;;;;;;;1999.90;999.90;;;17.30;99.90;;;;;;4993903;28;20498;-84
2023/05/28 07:43:01;;;;;;;1999.90;999.90;;;17.40;99.90;;;;;;4973271;28;20103;-84
2023/05/28 07:45:27;;;;;;;1999.90;999.90;;;17.50;99.90;;;;;;5013147;28;20053;-84
2023/05/28 07:47:53;;;;;;;1999.90;917.55;;;17.60;99.90;;;;;;4999914;28;20136;-83
2023/05/28 07:50:18;;;;;;;1999.90;999.90;;;17.80;99.90;;;;;;5014880;28;20398;-83
2023/05/28 07:52:45;;;;;;;1999.90;999.90;;;18.00;99.90;;;;;;5013419;28;20052;-84
2023/05/28 07:55:11;;;;;;;1999.90;999.90;;;18.10;99.90;;;;;;4998061;28;20471;-85
2023/05/28 07:57:37;;;;;;;1999.90;999.90;;;18.30;99.90;;;;;;5047112;28;20099;-84
2023/05/28 08:00:06;;;;;;;1999.90;999.90;;;18.40;99.90;;;;;;5016119;28;20046;-83
2023/05/28 08:02:33;;;;;;;1999.90;999.90;;;18.50;99.90;;;;;;5000691;28;20045;-84
2023/05/28 08:05:00;;;;;;;1999.90;890.72;;;18.80;99.90;;;;;;5017637;28;20111;-84
2023/05/28 08:07:27;;;;;;;;;;;18.90;99.90;;;;;;5015290;28;20049;-84
2023/05/28 08:09:52;;;;;;;1999.90;929.28;;;18.90;99.90;;;;;;5017421;28;20381;-83
2023/05/28 08:12:18;;;;;;;1999.90;999.90;;;19.00;99.90;;;;;;4999587;28;20095;-84
2023/05/28 08:14:44;;;;;;;1999.90;999.90;;;19.10;99.90;;;;;;5018120;28;20089;-83
2023/05/28 08:17:10;;;;;;;1999.90;735.97;;;19.30;99.90;;;;;;5000946;28;20049;-84
2023/05/28 08:19:36;;;;;;;1999.90;568.65;;;19.40;99.90;;;;;;5017859;28;20417;-84
2023/05/28 08:22:01;;;;;;;1999.90;999.90;;;19.50;99.90;;;;;;5016390;28;20053;-84
2023/05/28 08:24:27;;;;;;;1999.90;999.90;;;19.50;99.90;;;;;;5015818;28;20120;-84
2023/05/28 08:26:53;;;;;;;1999.90;999.90;;;19.70;99.90;;;;;;4995957;28;20501;-83
2023/05/28 08:29:18;;;;;;;1999.90;999.90;;;19.80;99.90;;;;;;4997605;28;20054;-84
2023/05/28 08:31:45;;;;;;;1999.90;999.90;;;19.80;99.90;;;;;;5014233;28;20393;-84
2023/05/28 08:34:10;;;;;;;1999.90;999.90;;;19.80;99.90;;;;;;4992549;28;20084;-84
2023/05/28 08:36:36;;;;;;;1999.90;999.90;;;19.90;99.90;;;;;;5016050;28;20093;-84
2023/05/28 08:39:03;;;;;;;1999.90;999.90;;;19.90;99.90;;;;;;5014958;28;20064;-84
2023/05/28 08:41:28;;;;;;;1999.90;999.90;;;20.00;99.90;;;;;;4999847;28;20088;-83
2023/05/28 08:43:54;;;;;;;1999.90;999.90;;;20.10;99.90;;;;;;5000415;28;20046;-83
2023/05/28 08:46:20;;;;;;;1999.90;999.90;;;20.20;99.90;;;;;;5000046;28;20057;-84
2023/05/28 08:48:48;;;;;;;1999.90;999.90;;;20.40;99.90;;;;;;5016527;28;20045;-81
2023/05/28 08:51:15;;;;;;;1999.90;999.90;;;20.40;99.90;;;;;;5000216;28;20136;-82
2023/05/28 08:53:47;;;;;;;1999.90;999.90;;;20.50;99.90;;;;;;5014806;28;20092;-83
2023/05/28 08:56:13;;;;;;;1999.90;999.90;;;20.60;99.90;;;;;;5015265;28;20056;-82
2023/05/28 08:58:39;;;;;;;1999.90;999.90;;;20.70;99.90;;;;;;5014904;28;20081;-82
2023/05/28 09:01:08;;;;;;;1999.90;999.90;;;20.80;99.90;;;;;;5016844;28;20084;-81
2023/05/28 09:03:35;;;;;;;1999.90;999.90;;;20.90;99.90;;;;;;5016789;28;20394;-81
2023/05/28 09:06:02;;;;;;;1999.90;999.90;;;21.10;99.90;;;;;;5015641;28;20049;-81
2023/05/28 09:08:28;;;;;;;1999.90;999.90;;;21.20;99.90;;;;;;4999314;28;20045;-82
2023/05/28 09:11:08;;;;;;;1999.90;999.90;;;21.40;99.90;;;;;;5014845;28;20055;-82
2023/05/28 09:13:34;;;;;;;1999.90;999.90;;;21.50;99.90;;;;;;5033158;28;20111;-81
2023/05/28 09:16:00;;;;;;;1999.90;999.90;;;21.80;99.90;;;;;;5015364;28;20625;-81
2023/05/28 09:18:25;;;;;;;1999.90;999.90;;;21.80;99.90;;;;;;4999007;28;20045;-81
2023/05/28 09:20:51;;;;;;;1999.90;999.90;;;22.00;99.90;;;;;;4983030;28;20479;-82
2023/05/28 09:23:20;;;;;;;1999.90;999.90;;;21.90;99.90;;;;;;5019910;28;20048;-82
2023/05/28 09:25:46;;;;;;;1999.90;999.90;;;22.10;99.90;;;;;;4997142;28;20202;-81
2023/05/28 09:28:15;;;;;;;1999.90;999.90;;;22.10;99.90;;;;;;5048869;28;20537;-81
2023/05/28 09:30:41;;;;;;;1999.90;999.90;;;22.20;99.90;;;;;;4998822;28;20053;-81
2023/05/28 09:33:09;;;;;;;1999.90;999.90;;;22.10;99.90;;;;;;4998412;28;20041;-81
2023/05/28 09:35:35;;;;;;;1999.90;999.90;;;22.50;99.90;;;;;;4985094;28;20041;-82
2023/05/28 09:38:01;;;;;;;1999.90;999.90;;;22.50;99.90;;;;;;5016612;28;20080;-82
2023/05/28 09:40:27;;;;;;;1999.90;999.90;;;22.70;99.90;;;;;;5013786;28;20743;-81
2023/05/28 09:42:53;;;;;;;1999.90;999.90;;;22.80;99.90;;;;;;5013085;28;20068;-81
2023/05/28 09:45:25;;;;;;;1999.90;999.90;;;23.10;99.90;;;;;;4995053;28;20061;-82
2023/05/28 09:47:51;;;;;;;1999.90;999.90;;;23.30;99.90;;;;;;5012325;28;20057;-81
2023/05/28 09:50:17;;;;;;;1999.90;999.90;;;23.30;99.90;;;;;;5012130;28;20050;-83
2023/05/28 09:52:44;;;;;;;1999.90;999.90;;;23.50;99.90;;;;;;5011487;28;20034;-82
2023/05/28 09:55:14;;;;;;;1999.90;999.90;;;23.60;99.90;;;;;;4995526;28;20041;-82
2023/05/28 09:57:45;;;;;;;1999.90;999.90;;;23.60;99.90;;;;;;5010487;28;20049;-81
2023/05/28 10:00:22;;;;;;;1999.90;999.90;;;24.00;99.90;;;;;;5011567;28;20041;-82
2023/05/28 10:03:05;;;;;;;1999.90;999.90;;;24.20;99.90;;;;;;5009796;28;20057;-82
2023/05/28 10:05:33;;;;;;;1999.90;999.90;;;24.20;99.90;;;;;;5011526;28;20047;-81
2023/05/28 10:08:01;;;;;;;1999.90;999.90;;;24.60;99.90;;;;;;5011822;28;20062;-81
2023/05/28 10:10:30;;;;;;;1999.90;999.90;;;25.10;99.90;;;;;;4994707;28;20050;-82
2023/05/28 10:12:57;;;;;;;1999.90;999.90;;;25.10;99.90;;;;;;4992617;28;20137;-82
2023/05/28 10:15:24;;;;;;;1999.90;999.90;;;25.30;99.90;;;;;;5011098;28;20111;-81
2023/05/28 10:17:53;;;;;;;1999.90;999.90;;;25.50;99.90;;;;;;4994162;28;20056;-82
2023/05/28 10:20:18;;;;;;;1999.90;999.90;;;25.80;99.90;;;;;;5011401;28;20057;-82
2023/05/28 10:22:45;;;;;;;1999.90;999.90;;;26.10;99.90;;;;;;4994684;28;20795;-82
2023/05/28 10:25:11;;;;;;;1999.90;999.90;;;26.30;99.90;;;;;;5010905;28;20045;-82
2023/05/28 10:27:44;;;;;;;1999.90;999.90;;;26.40;99.90;;;;;;4976901;28;20060;-82
2023/05/28 10:30:12;;;;;;;1999.90;999.90;;;26.50;99.90;;;;;;5010427;28;20050;-82
2023/05/28 10:32:42;;;;;;;1999.90;999.90;;;26.90;99.90;;;;;;4993438;28;20121;-82
2023/05/28 10:35:12;;;;;;;1999.90;999.90;;;27.10;99.90;;;;;;4995963;28;20057;-83
2023/05/28 10:37:39;;;;;;;1999.90;999.90;;;27.40;99.90;;;;;;5011430;28;20124;-81
2023/05/28 10:40:09;;;;;;;1999.90;999.90;;;27.50;99.90;;;;;;5011060;28;20046;-82
2023/05/28 10:42:41;;;;;;;1999.90;999.90;;;28.00;99.90;;;;;;5009618;28;20042;-82
2023/05/28 10:45:10;;;;;;;1999.90;999.90;;;28.10;99.90;;;;;;5026840;28;20064;-83
2023/05/28 10:47:38;;;;;;;1999.90;999.90;;;28.50;99.90;;;;;;5011284;28;20058;-82
2023/05/28 10:50:14;;;;;;;1999.90;999.90;;;28.90;99.90;;;;;;5010844;28;20422;-82
2023/05/28 10:52:40;;;;;;;1999.90;999.90;;;29.20;99.90;;;;;;5011357;28;20089;-81
2023/05/28 10:55:12;;;;;;;1999.90;999.90;;;29.30;99.90;;;;;;4994853;28;20038;-81
2023/05/28 10:57:43;;;;;;;1999.90;999.90;;;29.90;99.90;;;;;;5009569;28;20038;-82
2023/05/28 11:00:18;;;;;;;1999.90;999.90;;;30.30;99.90;;;;;;5010793;28;20057;-81
2023/05/28 11:02:45;;;;;;;1999.90;999.90;;;30.30;99.90;;;;;;5009611;28;20539;-83
2023/05/28 11:05:11;;;;;;;1999.90;999.90;;;30.80;99.90;;;;;;4993876;28;20358;-82
2023/05/28 11:07:38;;;;;;;1999.90;999.90;;;31.10;99.90;;;;;;5009780;28;20056;-82
2023/05/28 11:10:12;;;;;;;1999.90;999.90;;;31.40;99.90;;;;;;5010818;28;20041;-83
2023/05/28 11:12:39;;;;;;;1999.90;999.90;;;31.50;99.90;;;;;;5010466;28;20406;-82
2023/05/28 11:15:07;;;;;;;1999.90;999.90;;;31.80;99.90;;;;;;5011670;28;20485;-82
2023/05/28 11:17:51;;;;;;;1999.90;999.90;;;32.20;99.90;;;;;;5009087;28;20057;-85
2023/05/28 11:20:21;;;;;;;1999.90;999.90;;;32.30;99.90;;;;;;4991860;28;20091;-82
2023/05/28 11:22:47;;;;;;;1999.90;999.90;;;32.60;99.90;;;;;;5006490;28;20054;-82
2023/05/28 11:25:13;;;;;;;1999.90;999.90;;;33.00;99.90;;;;;;4994339;28;20124;-82
2023/05/28 11:27:40;;;;;;;1999.90;999.90;;;33.50;99.90;;;;;;5009527;28;20136;-82
2023/05/28 11:30:14;;;;;;;1999.90;999.90;;;33.80;99.90;;;;;;4992121;28;20060;-82
2023/05/28 11:32:41;;;;;;;1999.90;999.90;;;34.10;99.90;;;;;;4994475;28;20077;-82
2023/05/28 11:35:11;;;;;;;1999.90;999.90;;;34.10;99.90;;;;;;4999988;28;20041;-83
2023/05/28 11:37:37;;;;;;;1999.90;999.90;;;33.80;99.90;;;;;;4993169;28;20479;-84
2023/05/28 11:40:05;;;;;;;1999.90;999.90;;;34.00;99.90;;;;;;5011046;28;20679;-83
2023/05/28 11:42:31;;;;;;;1999.90;999.90;;;34.30;99.90;;;;;;4987932;28;20050;-81
2023/05/28 11:44:57;;;;;;;1999.90;999.90;;;34.60;99.90;;;;;;4993538;28;20085;-82
2023/05/28 11:47:24;;;;;;;1999.90;999.90;;;34.90;99.90;;;;;;5010899;28;20081;-82
2023/05/28 11:49:51;;;;;;;1999.90;999.90;;;34.80;99.90;;;;;;4992754;28;20041;-82
2023/05/28 11:52:23;;;;;;;1999.90;999.90;;;34.70;99.90;;;;;;5010979;28;20604;-81
2023/05/28 11:54:56;;;;;;;1999.90;999.90;;;35.10;99.90;;;;;;5012371;28;20054;-83
2023/05/28 11:57:24;;;;;;;1999.90;999.90;;;35.40;99.90;;;;;;5012541;28;20050;-82
2023/05/28 11:59:59;;;;;;;1999.90;999.90;;;35.20;99.90;;;;;;4994877;28;20058;-82